D/T METAR WX W/DIR W/SPE G/SPE TEMP DEWP
27/05/19 07:50 EGBB 270650Z 22007KT 190V250 9999 SCT025 12/08 Q1010 SW (220°) 8.1mph 12°C 8°C
27/05/19 07:20 EGBB 270620Z 25006KT 210V290 9999 SCT030 12/08 Q1010 WSW (250°) 6.9mph 12°C 8°C
27/05/19 06:50 EGBB 270550Z 24007KT 200V270 CAVOK 11/08 Q1010 WSW (240°) 8.1mph 11°C 8°C
27/05/19 06:20 EGBB 270520Z 25005KT 210V280 CAVOK 10/08 Q1010 WSW (250°) 5.8mph 10°C 8°C
27/05/19 05:50 EGBB 270450Z 24005KT 210V280 CAVOK 10/07 Q1010 WSW (240°) 5.8mph 10°C 7°C
27/05/19 05:20 EGBB 270420Z 24007KT CAVOK 09/07 Q1010 WSW (240°) 8.1mph 9°C 7°C
27/05/19 04:50 EGBB 270350Z 21006KT 170V240 CAVOK 09/07 Q1010 SSW (210°) 6.9mph 9°C 7°C
27/05/19 04:20 EGBB 270320Z 22005KT 190V260 CAVOK 10/07 Q1010 SW (220°) 5.8mph 10°C 7°C
27/05/19 03:50 EGBB 270250Z 22006KT CAVOK 10/07 Q1010 SW (220°) 6.9mph 10°C 7°C
27/05/19 03:20 EGBB 270220Z 23005KT CAVOK 10/07 Q1011 SW (230°) 5.8mph 10°C 7°C
27/05/19 02:50 EGBB 270150Z 24006KT CAVOK 10/07 Q1011 WSW (240°) 6.9mph 10°C 7°C
27/05/19 02:20 EGBB 270120Z 24004KT CAVOK 11/07 Q1011 WSW (240°) 4.6mph 11°C 7°C
27/05/19 01:50 EGBB 270050Z 24004KT CAVOK 11/07 Q1011 WSW (240°) 4.6mph 11°C 7°C
27/05/19 01:20 EGBB 270020Z 25004KT 210V280 CAVOK 12/07 Q1011 WSW (250°) 4.6mph 12°C 7°C
27/05/19 00:50 EGBB 262350Z 25004KT CAVOK 12/07 Q1011 WSW (250°) 4.6mph 12°C 7°C
27/05/19 00:20 EGBB 262320Z 26006KT CAVOK 12/07 Q1011 W (260°) 6.9mph 12°C 7°C
26/05/19 23:50 EGBB 262250Z 26008KT CAVOK 13/07 Q1011 W (260°) 9.2mph 13°C 7°C
26/05/19 23:20 EGBB 262220Z 28006KT CAVOK 13/07 Q1012 W (280°) 6.9mph 13°C 7°C
26/05/19 22:50 EGBB 262150Z 28005KT CAVOK 13/06 Q1012 W (280°) 5.8mph 13°C 6°C
26/05/19 22:20 EGBB 262120Z 25005KT 9999 FEW046 14/06 Q1012 WSW (250°) 5.8mph 14°C 6°C
26/05/19 21:50 EGBB 262050Z 25004KT 9999 FEW046 14/06 Q1012 WSW (250°) 4.6mph 14°C 6°C
26/05/19 21:20 EGBB 262020Z 30003KT 9999 FEW036 15/06 Q1011 WNW (300°) 3.5mph 15°C 6°C
26/05/19 20:50 EGBB 261950Z 31007KT CAVOK 16/06 Q1011 NW (310°) 8.1mph 16°C 6°C
26/05/19 19:50 EGBB 261850Z 31011KT 290V350 9999 SCT043 17/06 Q1011 NW (310°) 12.7mph 17°C 6°C
26/05/19 19:20 EGBB 261820Z 33014KT 9999 SCT040 17/06 Q1011 NNW (330°) 16.1mph 17°C 6°C
26/05/19 18:50 EGBB 261750Z 33014KT 9999 SCT040 17/07 Q1011 NNW (330°) 16.1mph 17°C 7°C
26/05/19 18:20 EGBB 261720Z 29012KT 9999 SCT045 18/07 Q1011 WNW (290°) 13.8mph 18°C 7°C
26/05/19 17:50 EGBB 261650Z 30012KT 9999 SCT043 19/07 Q1011 WNW (300°) 13.8mph 19°C 7°C
26/05/19 17:20 EGBB 261620Z 30011KT 260V320 9999 SCT036CB 19/08 Q1011 WNW (300°) 12.7mph 19°C 8°C
26/05/19 16:50 EGBB 261550Z 30014KT 9999 SCT042CB 20/09 Q1010 WNW (300°) 16.1mph 20°C 9°C
26/05/19 16:20 EGBB 261520Z 27011KT 240V300 9999 FEW035 SCT045 19/10 Q1010 W (270°) 12.7mph 19°C 10°C
26/05/19 15:50 EGBB 261450Z 28011KT 240V300 9999 SCT028 BKN034 19/12 Q1010 W (280°) 12.7mph 19°C 12°C
26/05/19 15:20 EGBB 261420Z 29009KT 250V310 9999 SCT024 BKN030 19/13 Q1010 WNW (290°) 10.4mph 19°C 13°C
26/05/19 14:50 EGBB 261350Z 26008KT 220V300 9999 SCT016 BKN025 18/14 Q1010 W (260°) 9.2mph 18°C 14°C
26/05/19 14:20 EGBB 261320Z 24007KT 190V260 9999 VCSH BKN024 17/15 Q1011 VCSH WSW (240°) 8.1mph 17°C 15°C
26/05/19 13:50 EGBB 261250Z 22006KT 170V250 9999 -SHRA BKN020 17/15 Q1011 -SHRA SW (220°) 6.9mph 17°C 15°C
26/05/19 13:20 EGBB 261220Z 22006KT 190V270 9999 SCT010 BKN020 BKN029 16/15 Q1011 SW (220°) 6.9mph 16°C 15°C
26/05/19 12:50 EGBB 261150Z 22007KT 180V250 9999 4200E VCSH SCT007 BKN018 16/15 Q1011 VCSH SW (220°) 8.1mph 16°C 15°C
26/05/19 12:20 EGBB 261120Z 24008KT 210V280 4800 -SHRA HZ SCT012 BKN022 16/15 Q1011 RESHRA -SHRA HZ WSW (240°) 9.2mph 16°C 15°C
26/05/19 11:50 EGBB 261050Z 25008KT 210V280 9999 BKN018 17/15 Q1012 WSW (250°) 9.2mph 17°C 15°C
26/05/19 11:20 EGBB 261020Z 26009KT 200V290 9999 BKN018 17/14 Q1012 W (260°) 10.4mph 17°C 14°C
26/05/19 10:50 EGBB 260950Z 24009KT 210V280 9999 4000E -SHRA SCT010 SCT022 BKN044 17/15 Q1012 -SHRA WSW (240°) 10.4mph 17°C 15°C
26/05/19 10:20 EGBB 260920Z 26009KT 9999 FEW016 BKN040 16/14 Q1012 W (260°) 10.4mph 16°C 14°C
26/05/19 09:50 EGBB 260850Z 25008KT 210V280 9000 -RA FEW012 BKN046 16/14 Q1012 -RA WSW (250°) 9.2mph 16°C 14°C
26/05/19 09:20 EGBB 260820Z 24009KT 210V270 9000 -RA SCT014 SCT026 16/14 Q1012 RERA -RA WSW (240°) 10.4mph 16°C 14°C
26/05/19 08:50 EGBB 260750Z 23008KT 200V270 9000 RA FEW012 SCT035 15/13 Q1012 RA SW (230°) 9.2mph 15°C 13°C
26/05/19 08:20 EGBB 260720Z 23008KT 200V270 9999 SCT011 15/13 Q1012 SW (230°) 9.2mph 15°C 13°C
26/05/19 07:50 EGBB 260650Z 24008KT 200V270 9999 FEW012 15/12 Q1013 WSW (240°) 9.2mph 15°C 12°C